Bunker Hill, West Virginia
Current Conditions -  °F | °C
As of 11:53 AM on Monday 22 Dec 2014 (Local Time) from KMRB Reporting Station
Haze Haze  
Wind Chill: 33°   Ceiling: 3800
Heat Index: 33°   Visibility: 6mi
Dew Point: 23°   Wind: 0mph
Humidity: 66%   Direction: NA
Pressure: 30.25"   Gusts: NA
Location:  39.33°N, 78.05°W
Report Text: KMRB 221653Z 00000KT 6SM HZ OVC038 01/M05 A3025 RMK AO2 SLP251 T00061050
Loading
Personal Weather Stations






























Interactive Weather Map New forecast layout! Learn more

10-Day Weather Forecast

Advertisements
Track Severe Weather on mobile